Lanark, West Virginia
Current Conditions -  °F | °C
As of 6:51 AM on Saturday 25 Oct 2014 (Local Time) from KBKW Reporting Station
Clear Clear  
Wind Chill:   Ceiling: Unl
Heat Index:   Visibility: 10mi
Dew Point:   Wind: 3mph
Humidity: 89%   Direction: 210°SSW
Pressure: 30.07"   Gusts: NA
Location:  37.83°N, 81.15°W
Report Text: KBKW 251051Z AUTO 21003KT 10SM CLR 04/02 A3007 RMK AO2 SLP188 T00390022 TSNO
Loading
Personal Weather Stations






























Interactive Weather Map
Tropical Storm Tracking
New forecast layout! Learn more

10-Day Weather Forecast

Advertisements
Track Severe Weather on mobile